createdAt,value
2022-12-25T00:01:23.480Z,98653.09
2022-12-25T00:04:27.152Z,98650.66
2022-12-25T00:07:31.042Z,98648.72
2022-12-25T00:10:42.903Z,98650.34
2022-12-25T00:13:49.713Z,98661.69
2022-12-25T00:16:53.371Z,98656.19
2022-12-25T00:19:57.097Z,98666.06
2022-12-25T00:23:00.743Z,98679.03
2022-12-25T00:26:09.123Z,98676.78
2022-12-25T00:29:14.622Z,98678.72
2022-12-25T00:32:18.229Z,98680.16
2022-12-25T00:35:22.224Z,98681.81
2022-12-25T00:38:25.757Z,98691.69
2022-12-25T00:41:44.542Z,98696.91
2022-12-25T00:44:48.610Z,98705.78
2022-12-25T00:47:52.070Z,98716.00
2022-12-25T00:50:57.385Z,98714.88
2022-12-25T00:54:01.453Z,98714.06
2022-12-25T00:57:06.700Z,98718.44
2022-12-25T01:00:12.002Z,98717.63
2022-12-25T01:03:16.515Z,98720.72
2022-12-25T01:06:20.123Z,98724.59
2022-12-25T01:09:40.945Z,98721.03
2022-12-25T01:12:45.860Z,98711.94
2022-12-25T01:15:49.921Z,98732.06
2022-12-25T01:18:53.791Z,98736.75
2022-12-25T01:21:57.341Z,98728.19
2022-12-25T01:25:00.989Z,98733.69
2022-12-25T01:28:06.348Z,98736.91
2022-12-25T01:31:12.163Z,98725.91
2022-12-25T01:34:15.677Z,98725.41
2022-12-25T01:37:19.842Z,98724.59
2022-12-25T01:40:23.801Z,98725.41
2022-12-25T01:43:33.330Z,98730.13
2022-12-25T01:46:37.311Z,98725.22
2022-12-25T01:49:46.415Z,98721.34
2022-12-25T01:52:51.855Z,98737.06
2022-12-25T01:56:03.778Z,98735.13
2022-12-25T01:59:12.018Z,98737.06
2022-12-25T02:02:16.686Z,98748.69
2022-12-25T02:05:27.843Z,98742.88
2022-12-25T02:08:34.118Z,98752.56
2022-12-25T02:11:55.915Z,98755.31
2022-12-25T02:15:06.107Z,98762.47
2022-12-25T02:18:19.391Z,98764.09
2022-12-25T02:21:53.346Z,98763.78
2022-12-25T02:25:19.593Z,98759.72
2022-12-25T02:28:31.993Z,98769.41
2022-12-25T02:31:45.080Z,98756.97
2022-12-25T02:34:57.070Z,98757.78
2022-12-25T02:38:08.052Z,98758.28
2022-12-25T02:41:17.771Z,98752.97
2022-12-25T02:44:44.247Z,98767.88
2022-12-25T02:48:05.633Z,98757.78
2022-12-25T02:51:32.276Z,98765.75
2022-12-25T02:55:02.887Z,98775.63
2022-12-25T02:58:30.545Z,98779.50
2022-12-25T03:02:02.237Z,98774.00
2022-12-25T03:05:30.257Z,98780.63
2022-12-25T03:08:45.582Z,98788.28
2022-12-25T03:11:54.503Z,98783.41
2022-12-25T03:15:15.914Z,98786.66
2022-12-25T03:18:28.341Z,98789.94
2022-12-25T03:21:52.117Z,98790.53
2022-12-25T03:25:13.163Z,98790.53
2022-12-25T03:28:17.104Z,98799.63
2022-12-25T03:31:29.167Z,98799.84
2022-12-25T03:35:06.510Z,98803.88
2022-12-25T03:38:46.357Z,98802.59
2022-12-25T03:42:15.436Z,98808.41
2022-12-25T03:45:47.467Z,98800.97
2022-12-25T03:49:21.382Z,98808.09
2022-12-25T03:52:48.518Z,98804.53
2022-12-25T03:56:12.038Z,98809.22
2022-12-25T03:59:46.175Z,98809.53
2022-12-25T04:03:07.293Z,98812.28
2022-12-25T04:06:28.268Z,98807.59
2022-12-25T04:09:51.044Z,98816.38
2022-12-25T04:13:08.529Z,98810.03
2022-12-25T04:16:29.723Z,98816.38
2022-12-25T04:19:50.528Z,98826.25
2022-12-25T04:23:12.468Z,98827.41
2022-12-25T04:26:34.628Z,98824.63
2022-12-25T04:29:56.406Z,98810.03
2022-12-25T04:33:17.766Z,98836.78
2022-12-25T04:36:22.591Z,98839.25
2022-12-25T04:39:26.283Z,98838.41
2022-12-25T04:42:31.451Z,98849.09
2022-12-25T04:45:34.882Z,98859.31
2022-12-25T04:48:39.176Z,98854.63
2022-12-25T04:51:42.784Z,98854.13
2022-12-25T04:54:46.591Z,98848.63
2022-12-25T04:57:51.400Z,98853.81
2022-12-25T05:00:55.299Z,98839.53
2022-12-25T05:03:58.961Z,98845.06
2022-12-25T05:07:02.932Z,98845.06
2022-12-25T05:10:07.799Z,98851.38
2022-12-25T05:13:12.946Z,98850.56
2022-12-25T05:16:19.605Z,98854.97
2022-12-25T05:19:23.798Z,98856.06
2022-12-25T05:22:27.511Z,98854.97
2022-12-25T05:25:31.819Z,98868.75
2022-12-25T05:28:36.999Z,98876.66
2022-12-25T05:31:40.834Z,98867.59
2022-12-25T05:34:44.513Z,98869.84
2022-12-25T05:37:48.436Z,98875.84
2022-12-25T05:40:52.954Z,98883.00
2022-12-25T05:43:58.343Z,98890.16
2022-12-25T05:47:01.687Z,98883.34
2022-12-25T05:50:07.651Z,98889.63
2022-12-25T05:53:14.628Z,98896.31
2022-12-25T05:56:18.902Z,98894.66
2022-12-25T05:59:23.704Z,98900.19
2022-12-25T06:02:29.558Z,98899.66
2022-12-25T06:05:33.243Z,98898.03
2022-12-25T06:08:37.301Z,98896.91
2022-12-25T06:11:41.531Z,98901.59
2022-12-25T06:14:46.590Z,98901.59
2022-12-25T06:17:49.905Z,98911.00
2022-12-25T06:20:53.815Z,98916.50
2022-12-25T06:23:57.366Z,98922.81
2022-12-25T06:27:01.132Z,98920.91
2022-12-25T06:30:08.066Z,98935.72
2022-12-25T06:33:12.056Z,98941.00
2022-12-25T06:36:20.739Z,98955.31
2022-12-25T06:39:25.755Z,98964.16
2022-12-25T06:42:29.742Z,98967.75
2022-12-25T06:45:37.234Z,98978.16
2022-12-25T06:48:47.878Z,98987.84
2022-12-25T06:51:51.916Z,98992.84
2022-12-25T06:54:55.245Z,98984.66
2022-12-25T06:57:59.213Z,98995.16
2022-12-25T07:01:15.059Z,98983.03
2022-12-25T07:04:28.585Z,99004.25
2022-12-25T07:07:31.909Z,99005.69
2022-12-25T07:10:35.718Z,99007.81
2022-12-25T07:13:39.317Z,99024.06
2022-12-25T07:16:45.715Z,99028.69
2022-12-25T07:19:50.217Z,99028.69
2022-12-25T07:22:54.195Z,99031.66
2022-12-25T07:26:00.021Z,99047.25
2022-12-25T07:29:04.113Z,99046.97
2022-12-25T07:32:09.337Z,99055.97
2022-12-25T07:35:12.943Z,99053.22
2022-12-25T07:38:16.505Z,99051.50
2022-12-25T07:41:20.629Z,99052.53
2022-12-25T07:44:24.746Z,99049.47
2022-12-25T07:47:29.710Z,99047.47
2022-12-25T07:50:33.042Z,99052.16
2022-12-25T07:53:38.625Z,99054.81
2022-12-25T07:56:41.919Z,99045.41
2022-12-25T07:59:45.725Z,99048.69
2022-12-25T08:02:52.043Z,99059.94
2022-12-25T08:05:55.819Z,99059.94
2022-12-25T08:09:05.611Z,99061.28
2022-12-25T08:12:09.300Z,99063.22
2022-12-25T08:15:13.850Z,99073.13
2022-12-25T08:18:18.839Z,99068.09
2022-12-25T08:21:23.016Z,99064.84
2022-12-25T08:24:26.705Z,99074.25
2022-12-25T08:27:29.992Z,99068.72
2022-12-25T08:30:33.691Z,99068.41
2022-12-25T08:33:39.150Z,99062.56
2022-12-25T08:36:42.899Z,99060.16
2022-12-25T08:39:46.191Z,99067.28
2022-12-25T08:42:49.821Z,99069.72
2022-12-25T08:45:53.473Z,99068.59
2022-12-25T08:48:58.820Z,99081.50
2022-12-25T08:52:02.215Z,99072.41
2022-12-25T08:55:08.337Z,99089.16
2022-12-25T08:58:12.742Z,99091.63
2022-12-25T09:01:16.887Z,99091.00
2022-12-25T09:04:21.847Z,99097.53
2022-12-25T09:07:25.357Z,99095.31
2022-12-25T09:10:29.761Z,99097.47
2022-12-25T09:13:33.527Z,99092.94
2022-12-25T09:16:37.251Z,99099.28
2022-12-25T09:19:42.168Z,99104.19
2022-12-25T09:22:45.632Z,99106.44
2022-12-25T09:25:49.427Z,99114.09
2022-12-25T09:28:52.933Z,99116.03
2022-12-25T09:31:56.851Z,99114.09
2022-12-25T09:35:01.589Z,99105.53
2022-12-25T09:38:05.696Z,99110.81
2022-12-25T09:41:18.060Z,99101.72
2022-12-25T09:44:27.580Z,99110.53
2022-12-25T09:47:35.025Z,99109.63
2022-12-25T09:50:48.529Z,99104.09
2022-12-25T09:54:01.765Z,99107.16
2022-12-25T09:57:06.673Z,99097.56
2022-12-25T10:00:23.327Z,99093.38
2022-12-25T10:04:02.760Z,99107.97
2022-12-25T10:07:19.858Z,99109.19
2022-12-25T10:10:46.641Z,99100.63
2022-12-25T10:14:11.716Z,99091.94
2022-12-25T10:17:36.416Z,99099.34
2022-12-25T10:20:50.980Z,99089.06
2022-12-25T10:24:12.270Z,99092.69
2022-12-25T10:27:21.707Z,99077.34
2022-12-25T10:30:29.758Z,99067.91
2022-12-25T10:33:33.144Z,99070.38
2022-12-25T10:36:36.805Z,99072.06
2022-12-25T10:39:46.663Z,99072.09
2022-12-25T10:42:57.206Z,99068.28
2022-12-25T10:46:00.797Z,99071.66
2022-12-25T10:49:05.348Z,99067.94
2022-12-25T10:52:25.185Z,99061.44
2022-12-25T10:55:30.336Z,99052.31
2022-12-25T10:58:35.650Z,99053.59
2022-12-25T11:01:39.367Z,99055.78
2022-12-25T11:04:43.379Z,99047.44
2022-12-25T11:07:51.305Z,99037.22
2022-12-25T11:10:59.575Z,99036.06
2022-12-25T11:14:04.808Z,99023.44
2022-12-25T11:17:10.503Z,99034.44
2022-12-25T11:20:26.317Z,99031.38
2022-12-25T11:23:33.278Z,99031.13
2022-12-25T11:26:49.777Z,99035.53
2022-12-25T11:29:59.639Z,99035.81
2022-12-25T11:33:09.057Z,99039.13
2022-12-25T11:36:22.517Z,99028.94
2022-12-25T11:39:30.971Z,99041.59
2022-12-25T11:42:40.504Z,99029.25
2022-12-25T11:45:52.951Z,99024.03
2022-12-25T11:49:03.176Z,99024.34
2022-12-25T11:52:08.892Z,99033.97
2022-12-25T11:55:22.838Z,99031.75
2022-12-25T11:58:36.881Z,99036.72
2022-12-25T12:01:47.922Z,99032.38
2022-12-25T12:05:08.069Z,99026.34
2022-12-25T12:08:13.857Z,99021.47
2022-12-25T12:11:22.938Z,99024.22
2022-12-25T12:14:47.653Z,99027.50
2022-12-25T12:17:51.291Z,99027.34
2022-12-25T12:21:05.912Z,99025.25
2022-12-25T12:24:16.080Z,99028.44
2022-12-25T12:27:28.075Z,99033.00
2022-12-25T12:30:36.332Z,99010.47
2022-12-25T12:33:45.091Z,99014.50
2022-12-25T12:36:50.118Z,99015.84
2022-12-25T12:39:56.507Z,99007.84
2022-12-25T12:43:00.553Z,99007.56
2022-12-25T12:46:17.924Z,99008.59
2022-12-25T12:49:28.824Z,99007.47
2022-12-25T12:52:35.953Z,99022.34
2022-12-25T12:55:39.751Z,99014.41
2022-12-25T12:58:49.899Z,99016.03
2022-12-25T13:02:21.506Z,99007.47
2022-12-25T13:05:39.077Z,99018.19
2022-12-25T13:09:04.502Z,99017.63
2022-12-25T13:12:09.851Z,99022.28
2022-12-25T13:15:15.641Z,99026.41
2022-12-25T13:18:21.567Z,99023.34
2022-12-25T13:21:29.635Z,99015.66
2022-12-25T13:24:36.315Z,99011.25
2022-12-25T13:27:40.141Z,99006.88
2022-12-25T13:30:43.960Z,99016.47
2022-12-25T13:33:58.108Z,99019.13
2022-12-25T13:37:09.963Z,99008.44
2022-12-25T13:40:25.996Z,99010.31
2022-12-25T13:43:30.479Z,99016.38
2022-12-25T13:46:34.302Z,99023.53
2022-12-25T13:49:38.886Z,99026.28
2022-12-25T13:52:43.989Z,99013.94
2022-12-25T13:55:54.560Z,99027.16
2022-12-25T13:58:58.324Z,99018.25
2022-12-25T14:02:01.829Z,99018.44
2022-12-25T14:05:28.291Z,99017.94
2022-12-25T14:08:36.292Z,99020.88
2022-12-25T14:11:43.052Z,99017.72
2022-12-25T14:14:46.679Z,99024.31
2022-12-25T14:17:52.864Z,99027.00
2022-12-25T14:21:03.420Z,99026.16
2022-12-25T14:24:14.987Z,99031.34
2022-12-25T14:27:22.096Z,99027.75
2022-12-25T14:30:29.923Z,99027.47
2022-12-25T14:33:40.296Z,99018.63
2022-12-25T14:36:46.198Z,99018.63
2022-12-25T14:39:58.376Z,99016.13
2022-12-25T14:43:05.834Z,99018.63
2022-12-25T14:46:09.308Z,99013.94
2022-12-25T14:49:25.943Z,99009.25
2022-12-25T14:52:43.502Z,99009.00
2022-12-25T14:55:50.634Z,98998.28
2022-12-25T14:58:57.502Z,99002.69
2022-12-25T15:02:02.190Z,99013.38
2022-12-25T15:05:06.434Z,99028.22
2022-12-25T15:08:26.484Z,99046.59
2022-12-25T15:11:31.388Z,99044.78
2022-12-25T15:14:38.690Z,99041.25
2022-12-25T15:17:42.840Z,99043.22
2022-12-25T15:20:46.767Z,99058.88
2022-12-25T15:23:51.394Z,99065.47
2022-12-25T15:26:55.469Z,99056.13
2022-12-25T15:30:14.470Z,99049.50
2022-12-25T15:33:20.501Z,99038.00
2022-12-25T15:36:25.369Z,99031.97
2022-12-25T15:39:31.042Z,99016.03
2022-12-25T15:42:34.401Z,99019.28
2022-12-25T15:45:38.375Z,99017.63
2022-12-25T15:48:41.689Z,99007.72
2022-12-25T15:51:47.410Z,98993.16
2022-12-25T15:54:54.126Z,98994.53
2022-12-25T15:57:58.272Z,98989.88
2022-12-25T16:01:01.672Z,98990.69
2022-12-25T16:04:05.961Z,98989.06
2022-12-25T16:07:15.732Z,98989.38
2022-12-25T16:13:26.102Z,99001.47
2022-12-25T16:16:30.205Z,98994.56
2022-12-25T16:19:34.081Z,98988.81
2022-12-25T16:22:40.939Z,98987.94
2022-12-25T16:25:46.094Z,98976.75
2022-12-25T16:28:49.930Z,98981.72
2022-12-25T16:31:53.308Z,98990.19
2022-12-25T16:34:57.219Z,98977.56
2022-12-25T16:41:06.395Z,98968.22
2022-12-25T16:44:11.073Z,98949.03
2022-12-25T16:47:15.275Z,98946.03
2022-12-25T16:50:18.870Z,98960.06
2022-12-25T16:53:22.936Z,98963.09
2022-12-25T16:56:28.489Z,98968.59
2022-12-25T16:59:33.108Z,98965.34
2022-12-25T17:02:36.726Z,98967.75
2022-12-25T17:05:40.676Z,98949.69
2022-12-25T17:08:45.214Z,98953.25
2022-12-25T17:11:50.238Z,98937.88
2022-12-25T17:14:53.982Z,98928.84
2022-12-25T17:17:57.669Z,98921.72
2022-12-25T17:21:01.104Z,98928.84
2022-12-25T17:24:07.177Z,98939.56
2022-12-25T17:27:12.220Z,98942.31
2022-12-25T17:30:16.276Z,98943.66
2022-12-25T17:33:19.775Z,98934.53
2022-12-25T17:36:24.170Z,98938.03
2022-12-25T17:39:27.548Z,98941.56
2022-12-25T17:42:32.712Z,98932.19
2022-12-25T17:45:37.836Z,98930.50
2022-12-25T17:48:41.766Z,98934.59
2022-12-25T17:51:46.020Z,98938.66
2022-12-25T17:54:49.871Z,98932.31
2022-12-25T17:57:54.709Z,98939.69
2022-12-25T18:00:59.015Z,98946.19
2022-12-25T18:04:03.237Z,98952.47
2022-12-25T18:07:06.828Z,98946.59
2022-12-25T18:10:11.128Z,98931.69
2022-12-25T18:13:16.249Z,98935.50
2022-12-25T18:16:23.192Z,98936.84
2022-12-25T18:19:26.977Z,98939.06
2022-12-25T18:22:30.558Z,98952.00
2022-12-25T18:25:34.787Z,98950.06
2022-12-25T18:28:42.330Z,98949.47
2022-12-25T18:31:46.380Z,98941.81
2022-12-25T18:34:54.524Z,98916.41
2022-12-25T18:37:58.238Z,98910.13
2022-12-25T18:41:04.922Z,98924.13
2022-12-25T18:44:09.981Z,98932.44
2022-12-25T18:47:13.344Z,98933.19
2022-12-25T18:50:17.298Z,98911.38
2022-12-25T18:53:20.690Z,98915.25
2022-12-25T18:56:24.793Z,98911.16
2022-12-25T18:59:30.782Z,98903.50
2022-12-25T19:02:35.042Z,98901.94
2022-12-25T19:05:40.301Z,98887.16
2022-12-25T19:08:44.031Z,98887.25
2022-12-25T19:11:47.524Z,98884.84
2022-12-25T19:14:52.845Z,98881.59
2022-12-25T19:17:56.419Z,98872.00
2022-12-25T19:21:03.219Z,98871.31
2022-12-25T19:24:07.173Z,98877.75
2022-12-25T19:27:11.261Z,98868.66
2022-12-25T19:30:16.344Z,98868.81
2022-12-25T19:33:20.726Z,98874.81
2022-12-25T19:36:23.911Z,98875.66
2022-12-25T19:39:27.629Z,98870.56
2022-12-25T19:42:30.952Z,98863.09
2022-12-25T19:45:36.081Z,98865.03
2022-12-25T19:48:39.443Z,98863.72
2022-12-25T19:51:47.053Z,98859.34
2022-12-25T19:54:52.706Z,98850.88
2022-12-25T19:57:59.243Z,98854.81
2022-12-25T20:01:08.727Z,98839.72
2022-12-25T20:04:12.897Z,98836.25
2022-12-25T20:07:16.223Z,98833.81
2022-12-25T20:10:19.977Z,98833.81
2022-12-25T20:13:24.093Z,98824.72
2022-12-25T20:16:29.476Z,98825.03
2022-12-25T20:19:33.140Z,98832.47
2022-12-25T20:22:36.996Z,98828.09
2022-12-25T20:25:41.842Z,98831.44
2022-12-25T20:28:46.393Z,98826.88
2022-12-25T20:31:51.362Z,98819.19
2022-12-25T20:34:55.256Z,98821.41
2022-12-25T20:37:58.504Z,98800.50
2022-12-25T20:44:28.277Z,98791.72
2022-12-25T20:47:33.200Z,98792.88
2022-12-25T20:50:36.485Z,98781.44
2022-12-25T20:53:40.430Z,98781.84
2022-12-25T20:56:43.957Z,98780.06
2022-12-25T20:59:47.389Z,98780.78
2022-12-25T21:02:52.674Z,98779.22
2022-12-25T21:05:57.971Z,98772.28
2022-12-25T21:09:04.022Z,98765.31
2022-12-25T21:12:08.993Z,98753.91
2022-12-25T21:15:15.660Z,98765.03
2022-12-25T21:18:23.425Z,98759.63
2022-12-25T21:21:26.821Z,98754.59
2022-12-25T21:24:30.626Z,98749.44
2022-12-25T21:27:34.263Z,98745.94
2022-12-25T21:30:38.564Z,98746.34
2022-12-25T21:33:51.397Z,98733.50
2022-12-25T21:36:55.042Z,98733.34
2022-12-25T21:39:58.349Z,98726.28
2022-12-25T21:43:02.159Z,98731.34
2022-12-25T21:46:09.033Z,98712.44
2022-12-25T21:49:33.922Z,98708.44
2022-12-25T21:52:36.485Z,98705.25
2022-12-25T21:55:39.931Z,98693.75
2022-12-25T21:58:43.806Z,98688.84
2022-12-25T22:01:49.113Z,98690.78
2022-12-25T22:04:54.089Z,98691.28
2022-12-25T22:07:57.201Z,98686.63
2022-12-25T22:11:05.010Z,98702.53
2022-12-25T22:14:52.990Z,98696.50
2022-12-25T22:18:14.734Z,98690.53
2022-12-25T22:21:23.179Z,98691.06
2022-12-25T22:24:26.455Z,98691.66
2022-12-25T22:27:34.590Z,98687.22
2022-12-25T22:30:38.256Z,98688.63
2022-12-25T22:33:41.735Z,98687.78
2022-12-25T22:36:46.609Z,98679.25
2022-12-25T22:39:50.218Z,98682.59
2022-12-25T22:42:55.738Z,98666.94
2022-12-25T22:46:00.191Z,98665.31
2022-12-25T22:49:03.721Z,98656.56
2022-12-25T22:52:09.801Z,98669.47
2022-12-25T22:55:16.623Z,98673.34
2022-12-25T22:58:20.121Z,98675.25
2022-12-25T23:01:23.494Z,98665.41
2022-12-25T23:04:27.086Z,98657.44
2022-12-25T23:07:31.908Z,98644.25
2022-12-25T23:10:35.408Z,98630.00
2022-12-25T23:13:56.636Z,98618.19
2022-12-25T23:17:01.137Z,98629.47
2022-12-25T23:20:23.999Z,98637.72
2022-12-25T23:23:46.227Z,98642.38
2022-12-25T23:26:49.434Z,98633.91
2022-12-25T23:29:52.923Z,98636.06
2022-12-25T23:32:56.352Z,98616.03
2022-12-25T23:36:00.013Z,98617.97
2022-12-25T23:39:09.994Z,98608.31
2022-12-25T23:42:13.917Z,98613.88
2022-12-25T23:45:17.463Z,98601.78
2022-12-25T23:48:20.966Z,98603.19
2022-12-25T23:51:24.384Z,98616.13
2022-12-25T23:54:32.176Z,98611.94
2022-12-25T23:57:35.670Z,98612.84
